Time;durP1;ratioP1;P1;durP2;ratioP2;P2;SDS_P1;SDS_P2;PMS_P1;PMS_P2;Temp;Humidity;BMP_temperature;BMP_pressure;BME280_temperature;BME280_humidity;BME280_pressure;Samples;Min_cycle;Max_cycle;Signal;HPM_P1;HPM_P2
2021/12/01 00:00:13;;;;;;;1.90;1.10;;;2.10;99.90;;;;;;7388622;19;20320;-77
2021/12/01 00:02:39;;;;;;;2.38;1.00;;;2.10;99.90;;;;;;7390686;19;20341;-77
2021/12/01 00:05:06;;;;;;;2.30;1.02;;;2.00;99.90;;;;;;7393169;19;20300;-80
2021/12/01 00:07:35;;;;;;;1.00;1.00;;;2.00;99.90;;;;;;7395269;19;21301;-77
2021/12/01 00:10:04;;;;;;;2.08;1.08;;;1.90;99.90;;;;;;7388010;19;20668;-78
2021/12/01 00:12:30;;;;;;;1.90;1.00;;;1.90;99.90;;;;;;7389913;19;20340;-77
2021/12/01 00:14:55;;;;;;;1.27;1.17;;;1.90;99.90;;;;;;7391060;19;20341;-77
2021/12/01 00:17:21;;;;;;;1.05;0.95;;;1.80;99.90;;;;;;7386105;19;20309;-77
2021/12/01 00:19:47;;;;;;;1.20;1.10;;;1.80;99.90;;;;;;7386673;19;20336;-78
2021/12/01 00:22:12;;;;;;;2.47;1.25;;;1.80;99.90;;;;;;7388747;19;20356;-77
2021/12/01 00:24:38;;;;;;;1.40;1.20;;;1.80;99.90;;;;;;7388410;19;20429;-80
2021/12/01 00:27:04;;;;;;;2.70;1.23;;;1.70;99.90;;;;;;7389596;19;20320;-77
2021/12/01 00:29:29;;;;;;;3.10;1.23;;;1.70;99.90;;;;;;7389804;19;21380;-77
2021/12/01 00:31:55;;;;;;;1.47;1.27;;;1.70;99.90;;;;;;7397587;19;20325;-78
2021/12/01 00:34:21;;;;;;;1.17;1.13;;;1.70;99.90;;;;;;7404210;19;20340;-77
2021/12/01 00:36:48;;;;;;;1.90;1.20;;;1.70;99.90;;;;;;7400793;19;20351;-77
2021/12/01 00:39:13;;;;;;;1.25;1.10;;;1.70;99.90;;;;;;7394962;19;20874;-79
2021/12/01 00:41:39;;;;;;;1.40;1.30;;;1.70;99.90;;;;;;7392588;19;20382;-78
2021/12/01 00:44:07;;;;;;;0.93;0.93;;;1.70;99.90;;;;;;7392309;19;20713;-77
2021/12/01 00:46:39;;;;;;;2.38;1.50;;;1.70;99.90;;;;;;7387854;19;20348;-77
2021/12/01 00:49:04;;;;;;;1.27;1.17;;;1.70;99.90;;;;;;7384645;19;21818;-78
2021/12/01 00:51:30;;;;;;;1.55;1.45;;;1.80;99.90;;;;;;7389564;19;20377;-77
2021/12/01 00:53:56;;;;;;;1.70;1.27;;;1.70;99.90;;;;;;7386951;19;20890;-77
2021/12/01 00:56:21;;;;;;;1.30;1.20;;;1.80;99.90;;;;;;7387189;19;20418;-78
2021/12/01 00:58:47;;;;;;;2.80;1.48;;;1.60;99.90;;;;;;7382002;19;20872;-77
2021/12/01 01:01:12;;;;;;;1.17;1.10;;;1.70;99.90;;;;;;7387813;19;20703;-78
2021/12/01 01:03:39;;;;;;;3.90;1.60;;;1.80;99.90;;;;;;7385620;19;20372;-79
2021/12/01 01:06:04;;;;;;;2.83;1.23;;;1.70;99.90;;;;;;7384528;19;20322;-78
2021/12/01 01:08:30;;;;;;;3.60;1.45;;;1.70;99.90;;;;;;7384413;19;20317;-77
2021/12/01 01:16:24;;;;;;;1.45;1.20;;;1.70;99.90;;;;;;7384080;19;20312;-78
2021/12/01 01:18:58;;;;;;;1.35;1.05;;;1.70;99.90;;;;;;7372616;19;20353;-77
2021/12/01 01:21:26;;;;;;;1.20;1.10;;;1.70;99.90;;;;;;7383332;19;20312;-78
2021/12/01 01:23:52;;;;;;;1.87;1.67;;;1.70;99.90;;;;;;7385823;19;20308;-77
2021/12/01 01:26:19;;;;;;;1.30;1.20;;;1.70;99.90;;;;;;7385427;19;20369;-77
2021/12/01 01:28:45;;;;;;;2.00;1.27;;;1.70;99.90;;;;;;7383025;19;20420;-77
2021/12/01 01:31:10;;;;;;;5.05;1.30;;;1.70;99.90;;;;;;7386064;19;20683;-77
2021/12/01 01:33:36;;;;;;;1.45;1.15;;;1.70;99.90;;;;;;7387063;19;20334;-77
2021/12/01 01:36:02;;;;;;;4.60;1.13;;;1.70;99.90;;;;;;7384682;19;20312;-77
2021/12/01 01:38:31;;;;;;;1.15;1.10;;;1.70;99.90;;;;;;7384342;19;20341;-77
2021/12/01 01:40:57;;;;;;;1.20;1.10;;;1.60;99.90;;;;;;7383389;19;20319;-78
2021/12/01 01:43:23;;;;;;;1.23;0.93;;;1.60;99.90;;;;;;7383727;19;20324;-78
2021/12/01 01:45:52;;;;;;;2.00;0.90;;;1.60;99.90;;;;;;7385568;19;20341;-78
2021/12/01 01:48:22;;;;;;;0.88;0.88;;;1.60;99.90;;;;;;7385241;19;20345;-79
2021/12/01 01:50:47;;;;;;;1.00;0.95;;;1.60;99.90;;;;;;7387652;19;20392;-78
2021/12/01 01:53:17;;;;;;;2.00;1.10;;;1.60;99.90;;;;;;7390346;19;20301;-79
2021/12/01 01:55:44;;;;;;;1.20;1.10;;;1.60;99.90;;;;;;7389753;19;20340;-78
2021/12/01 01:58:10;;;;;;;1.20;0.90;;;1.50;99.90;;;;;;7383631;19;20406;-77
2021/12/01 02:00:44;;;;;;;1.75;1.30;;;1.50;99.90;;;;;;7385710;19;20689;-78
2021/12/01 02:03:12;;;;;;;1.52;1.05;;;1.40;99.90;;;;;;7281794;19;2008844;-78
2021/12/01 02:05:38;;;;;;;1.30;0.90;;;1.30;99.90;;;;;;7383928;19;20839;-77
2021/12/01 02:08:04;;;;;;;1.60;1.20;;;1.40;99.90;;;;;;7384502;19;20342;-77
2021/12/01 02:10:30;;;;;;;1.00;1.00;;;1.40;99.90;;;;;;7382875;19;20431;-78
2021/12/01 02:12:56;;;;;;;1.17;1.02;;;1.30;99.90;;;;;;7382465;19;20312;-77
2021/12/01 02:15:21;;;;;;;1.20;1.10;;;1.30;99.90;;;;;;7383121;19;20344;-77
2021/12/01 02:17:47;;;;;;;3.50;1.40;;;1.50;99.90;;;;;;7380216;19;20658;-77
2021/12/01 02:20:19;;;;;;;1.10;1.10;;;1.30;99.90;;;;;;7381868;19;20705;-77
2021/12/01 02:22:45;;;;;;;1.03;1.00;;;1.40;99.90;;;;;;7383375;19;20317;-77
2021/12/01 02:25:11;;;;;;;1.40;1.30;;;1.40;99.90;;;;;;7382158;19;20694;-77
2021/12/01 02:27:36;;;;;;;1.58;1.25;;;1.50;99.90;;;;;;7382570;19;20990;-77
2021/12/01 02:30:02;;;;;;;1.87;1.20;;;1.40;99.90;;;;;;7381629;19;20446;-77
2021/12/01 02:32:28;;;;;;;2.08;1.30;;;1.60;99.90;;;;;;7377579;19;20850;-77
2021/12/01 02:34:54;;;;;;;1.13;1.02;;;1.60;99.90;;;;;;7375867;19;20376;-77
2021/12/01 02:37:21;;;;;;;1.83;1.40;;;1.60;99.90;;;;;;7379062;19;20337;-78
2021/12/01 02:39:52;;;;;;;2.50;1.60;;;1.60;99.90;;;;;;7380877;19;20320;-78
2021/12/01 02:42:19;;;;;;;4.28;1.58;;;1.50;99.90;;;;;;7383921;19;20344;-77
2021/12/01 02:44:45;;;;;;;2.03;1.60;;;1.50;99.90;;;;;;7368262;19;20309;-77
2021/12/01 02:47:10;;;;;;;1.58;1.48;;;1.60;99.90;;;;;;7381639;19;20915;-77
2021/12/01 02:49:36;;;;;;;1.33;1.23;;;1.70;99.90;;;;;;7380861;19;20336;-79
2021/12/01 02:52:01;;;;;;;2.63;1.40;;;1.70;99.90;;;;;;7383946;19;20339;-77
2021/12/01 02:54:29;;;;;;;1.33;1.10;;;1.70;99.90;;;;;;7381071;19;20348;-77
2021/12/01 02:56:54;;;;;;;2.40;1.30;;;1.70;99.90;;;;;;7382714;19;20351;-77
2021/12/01 02:59:20;;;;;;;1.93;1.40;;;1.80;99.90;;;;;;7360158;19;20316;-77
2021/12/01 03:01:46;;;;;;;1.02;1.02;;;1.80;99.90;;;;;;7382083;19;20345;-77
2021/12/01 03:04:15;;;;;;;5.60;1.23;;;1.80;99.90;;;;;;7381095;19;20337;-78
2021/12/01 03:06:43;;;;;;;1.25;1.20;;;1.80;99.90;;;;;;7380485;19;20348;-79
2021/12/01 03:09:08;;;;;;;2.92;1.60;;;1.90;99.90;;;;;;7382032;19;20332;-78
2021/12/01 03:11:35;;;;;;;4.50;1.25;;;2.00;99.90;;;;;;7384981;19;20368;-77
2021/12/01 03:14:01;;;;;;;1.80;1.40;;;1.90;99.90;;;;;;7386662;19;20316;-79
2021/12/01 03:16:26;;;;;;;1.20;1.10;;;2.00;99.90;;;;;;7384625;19;20349;-79
2021/12/01 03:18:52;;;;;;;5.20;1.42;;;2.10;99.90;;;;;;7383880;19;20315;-78
2021/12/01 03:21:18;;;;;;;4.70;1.50;;;2.00;99.90;;;;;;7385114;19;20349;-79
2021/12/01 03:23:43;;;;;;;3.10;1.33;;;2.00;99.90;;;;;;7384728;19;20316;-78
2021/12/01 03:26:11;;;;;;;3.70;1.60;;;2.00;99.90;;;;;;7382232;19;20340;-78
2021/12/01 03:28:37;;;;;;;2.60;1.42;;;2.00;99.90;;;;;;7378969;19;20739;-78
2021/12/01 03:31:02;;;;;;;1.30;1.20;;;2.10;99.90;;;;;;7382006;19;20320;-77
2021/12/01 03:33:28;;;;;;;1.23;1.13;;;2.10;99.90;;;;;;7382296;19;20328;-78
2021/12/01 03:35:54;;;;;;;1.17;1.10;;;2.10;99.90;;;;;;7378499;19;20383;-77
2021/12/01 03:38:21;;;;;;;1.30;1.20;;;2.30;99.90;;;;;;7381096;19;20337;-77
2021/12/01 03:40:47;;;;;;;1.47;1.33;;;2.10;99.90;;;;;;7381430;19;20317;-81
2021/12/01 03:43:12;;;;;;;2.20;1.40;;;2.10;99.90;;;;;;7378994;19;20345;-77
2021/12/01 03:45:38;;;;;;;1.92;0.90;;;2.10;99.90;;;;;;7380876;19;20982;-78
2021/12/01 03:48:04;;;;;;;1.37;1.00;;;2.10;99.90;;;;;;7378296;19;20344;-76
2021/12/01 03:50:30;;;;;;;2.15;1.17;;;2.10;99.90;;;;;;7378847;19;20313;-76
2021/12/01 03:52:55;;;;;;;1.05;1.00;;;2.10;99.90;;;;;;7381209;19;20457;-78
2021/12/01 03:55:21;;;;;;;1.37;1.27;;;2.20;99.90;;;;;;7379706;19;20304;-77
2021/12/01 03:57:47;;;;;;;1.40;1.20;;;2.20;99.90;;;;;;7376086;19;21139;-77
2021/12/01 04:00:14;;;;;;;1.40;1.30;;;2.20;99.90;;;;;;7379595;19;20377;-78
2021/12/01 04:02:39;;;;;;;1.60;1.10;;;2.20;99.90;;;;;;7380165;19;20347;-78
2021/12/01 04:05:05;;;;;;;5.10;1.87;;;2.20;99.90;;;;;;7377421;19;20301;-77
2021/12/01 04:07:31;;;;;;;1.55;1.45;;;2.20;99.90;;;;;;7377770;19;20336;-77
2021/12/01 04:09:57;;;;;;;1.92;1.33;;;2.20;99.90;;;;;;7363851;19;20313;-78
2021/12/01 04:12:22;;;;;;;2.23;1.43;;;2.20;99.90;;;;;;7380027;19;20869;-77
2021/12/01 04:14:48;;;;;;;1.80;1.40;;;2.20;99.90;;;;;;7380267;19;20358;-77
2021/12/01 04:17:14;;;;;;;1.70;1.40;;;2.20;99.90;;;;;;7380383;19;20305;-76
2021/12/01 04:19:39;;;;;;;3.60;1.48;;;2.30;99.90;;;;;;7375791;19;20349;-77
2021/12/01 04:22:05;;;;;;;1.90;1.43;;;2.30;99.90;;;;;;7384927;19;20400;-77
2021/12/01 04:24:31;;;;;;;1.30;1.20;;;2.30;99.90;;;;;;7384724;19;20456;-78
2021/12/01 04:26:57;;;;;;;3.25;1.60;;;2.30;99.90;;;;;;7385605;19;20320;-77
2021/12/01 04:29:23;;;;;;;1.95;1.55;;;2.40;99.90;;;;;;7386004;19;20333;-77
2021/12/01 04:31:49;;;;;;;5.70;2.10;;;2.30;99.90;;;;;;7386864;19;20773;-77
2021/12/01 04:34:14;;;;;;;2.30;1.60;;;2.30;99.90;;;;;;7375970;19;20345;-77
2021/12/01 04:36:42;;;;;;;3.43;1.83;;;2.40;99.90;;;;;;7388791;19;20348;-78
2021/12/01 04:39:10;;;;;;;1.85;1.50;;;2.40;99.90;;;;;;7385813;19;20392;-76
2021/12/01 04:41:38;;;;;;;2.35;1.55;;;2.40;99.90;;;;;;7387048;19;20350;-77
2021/12/01 04:44:09;;;;;;;3.15;1.50;;;2.40;99.90;;;;;;7385819;19;20332;-76
2021/12/01 04:46:41;;;;;;;3.28;1.83;;;2.40;99.90;;;;;;7385058;19;20364;-75
2021/12/01 04:49:07;;;;;;;3.80;1.70;;;2.40;99.90;;;;;;7386844;19;21088;-77
2021/12/01 04:51:33;;;;;;;2.35;1.83;;;2.40;99.90;;;;;;7384834;19;20362;-76
2021/12/01 04:53:59;;;;;;;3.40;1.70;;;2.50;99.90;;;;;;7385307;19;20317;-77
2021/12/01 04:56:25;;;;;;;3.03;1.80;;;2.60;99.90;;;;;;7385518;19;20405;-77
2021/12/01 04:58:50;;;;;;;3.65;1.45;;;2.40;99.90;;;;;;7382988;19;20693;-75
2021/12/01 05:01:17;;;;;;;2.90;1.70;;;2.60;99.90;;;;;;7386619;19;20897;-77
2021/12/01 05:03:43;;;;;;;2.63;1.73;;;2.60;99.90;;;;;;7379212;19;20343;-77
2021/12/01 05:06:12;;;;;;;5.65;1.88;;;2.60;99.90;;;;;;7381559;19;22173;-77
2021/12/01 05:08:38;;;;;;;3.13;1.80;;;2.60;99.90;;;;;;7383228;19;20326;-75
2021/12/01 05:11:03;;;;;;;2.13;1.40;;;2.60;99.90;;;;;;7385297;19;22029;-77
2021/12/01 05:13:29;;;;;;;2.72;1.63;;;2.60;99.90;;;;;;7383876;19;20301;-76
2021/12/01 05:15:55;;;;;;;2.40;1.90;;;2.50;99.90;;;;;;7382237;19;20320;-77
2021/12/01 05:18:20;;;;;;;2.58;1.50;;;2.60;99.90;;;;;;7385952;19;20977;-76
2021/12/01 05:20:46;;;;;;;1.40;1.30;;;2.70;99.90;;;;;;7383433;19;20311;-77
2021/12/01 05:23:15;;;;;;;2.67;1.73;;;2.70;99.90;;;;;;7380839;19;20349;-76
2021/12/01 05:25:41;;;;;;;2.45;1.45;;;2.70;99.90;;;;;;7383294;19;20352;-76
2021/12/01 05:28:07;;;;;;;1.30;1.20;;;2.70;99.90;;;;;;7379449;19;20855;-78
2021/12/01 05:30:32;;;;;;;4.00;1.77;;;2.80;99.90;;;;;;7384168;19;20325;-77
2021/12/01 05:33:04;;;;;;;1.80;1.30;;;2.80;99.90;;;;;;7383845;19;20357;-76
2021/12/01 05:35:30;;;;;;;1.58;1.48;;;2.80;99.90;;;;;;7384799;19;20399;-77
2021/12/01 05:37:56;;;;;;;3.47;1.90;;;2.80;99.90;;;;;;7384834;19;20340;-77
2021/12/01 05:40:21;;;;;;;3.73;1.70;;;2.70;99.90;;;;;;7386954;19;20343;-76
2021/12/01 05:42:47;;;;;;;1.10;1.00;;;2.80;99.90;;;;;;7381838;19;20843;-78
2021/12/01 05:45:13;;;;;;;5.00;2.10;;;2.80;99.90;;;;;;7386098;19;20317;-78
2021/12/01 05:47:38;;;;;;;3.03;1.70;;;2.80;99.90;;;;;;7390958;19;20384;-77
2021/12/01 05:50:04;;;;;;;4.57;1.30;;;2.80;99.90;;;;;;7389968;19;20324;-77
2021/12/01 05:52:30;;;;;;;2.45;1.48;;;2.90;99.90;;;;;;7389305;19;20705;-80
2021/12/01 05:54:56;;;;;;;4.30;1.40;;;2.90;99.90;;;;;;7373231;19;20375;-78
2021/12/01 05:57:21;;;;;;;3.10;1.50;;;2.90;99.90;;;;;;7386305;19;20313;-77
2021/12/01 05:59:47;;;;;;;4.53;1.60;;;2.90;99.90;;;;;;7384842;19;20356;-77
2021/12/01 06:02:12;;;;;;;1.85;1.58;;;2.90;99.90;;;;;;7385181;19;20317;-77
2021/12/01 06:04:38;;;;;;;2.13;1.70;;;2.90;99.90;;;;;;7383272;19;20300;-77
2021/12/01 06:07:04;;;;;;;6.80;1.67;;;3.00;99.90;;;;;;7382642;19;20428;-77
2021/12/01 06:09:29;;;;;;;3.20;1.70;;;2.90;99.90;;;;;;7382298;19;20993;-77
2021/12/01 06:11:56;;;;;;;3.72;1.60;;;3.00;99.90;;;;;;7383683;19;22010;-77
2021/12/01 06:14:21;;;;;;;4.43;1.53;;;3.00;99.90;;;;;;7382779;19;20345;-79
2021/12/01 06:16:47;;;;;;;5.18;1.90;;;3.00;99.90;;;;;;7384929;19;20975;-79
2021/12/01 06:19:13;;;;;;;4.90;1.93;;;3.00;99.90;;;;;;7379011;19;20364;-79
2021/12/01 06:21:38;;;;;;;1.83;1.33;;;3.00;99.90;;;;;;7382369;19;20365;-80
2021/12/01 06:24:04;;;;;;;2.90;1.80;;;2.90;99.90;;;;;;7383867;19;20324;-80
2021/12/01 06:26:30;;;;;;;4.40;1.90;;;3.00;99.90;;;;;;7380893;19;20863;-79
2021/12/01 06:28:56;;;;;;;2.72;1.67;;;3.00;99.90;;;;;;7382727;19;20324;-82
2021/12/01 06:31:21;;;;;;;2.20;1.53;;;3.10;99.90;;;;;;7379666;19;20459;-80
2021/12/01 06:33:47;;;;;;;3.83;1.35;;;3.10;99.90;;;;;;7381725;19;20312;-80
2021/12/01 06:36:12;;;;;;;1.80;1.40;;;3.10;99.90;;;;;;7385211;19;20316;-79
2021/12/01 06:38:39;;;;;;;2.38;1.67;;;3.10;99.90;;;;;;7382970;19;20312;-80
2021/12/01 06:41:05;;;;;;;3.13;1.63;;;3.10;99.90;;;;;;7384184;19;20316;-80
2021/12/01 06:43:31;;;;;;;3.45;1.70;;;3.20;99.90;;;;;;7383953;19;20319;-80
2021/12/01 06:45:57;;;;;;;1.57;1.47;;;3.20;99.90;;;;;;7387780;19;20388;-82
2021/12/01 06:48:22;;;;;;;3.05;1.70;;;3.20;99.90;;;;;;7389576;19;20333;-76
2021/12/01 06:50:48;;;;;;;1.30;1.20;;;3.20;99.90;;;;;;7384554;19;20297;-79
2021/12/01 06:53:14;;;;;;;4.77;2.43;;;3.30;99.90;;;;;;7384962;19;20396;-79
2021/12/01 06:55:39;;;;;;;4.53;2.20;;;3.20;99.90;;;;;;7386870;19;20316;-81
2021/12/01 06:58:05;;;;;;;3.73;1.70;;;3.10;99.90;;;;;;7382917;19;20340;-80
2021/12/01 07:00:30;;;;;;;2.65;1.50;;;3.30;99.90;;;;;;7386492;19;20334;-80
2021/12/01 07:02:56;;;;;;;2.00;1.53;;;3.20;99.90;;;;;;7387046;19;20304;-80
2021/12/01 07:05:22;;;;;;;1.83;1.40;;;3.30;99.90;;;;;;7394851;19;20324;-79
2021/12/01 07:07:48;;;;;;;2.70;1.33;;;3.30;99.90;;;;;;7389224;19;20321;-79
2021/12/01 07:10:13;;;;;;;2.87;1.67;;;3.40;99.90;;;;;;7386346;19;20320;-79
2021/12/01 07:12:39;;;;;;;2.40;1.50;;;3.40;99.90;;;;;;7385879;19;20337;-80
2021/12/01 07:15:06;;;;;;;7.53;2.00;;;3.40;99.90;;;;;;7388357;19;20333;-79
2021/12/01 07:17:31;;;;;;;1.10;1.00;;;3.50;99.90;;;;;;7383651;19;20316;-79
2021/12/01 07:19:57;;;;;;;2.63;1.60;;;3.50;99.90;;;;;;7383169;19;21019;-80
2021/12/01 07:22:23;;;;;;;1.57;1.47;;;3.50;99.90;;;;;;7383230;19;21200;-81
2021/12/01 07:24:48;;;;;;;2.03;1.60;;;3.60;99.90;;;;;;7381350;19;20997;-80
2021/12/01 07:27:14;;;;;;;1.80;1.50;;;3.60;99.90;;;;;;7383066;19;20331;-79
2021/12/01 07:29:42;;;;;;;3.53;1.85;;;3.60;99.90;;;;;;7380283;19;20304;-79
2021/12/01 07:32:08;;;;;;;1.20;1.10;;;3.70;99.90;;;;;;7383315;19;20321;-78
2021/12/01 07:34:41;;;;;;;1.20;1.10;;;3.70;99.90;;;;;;7381743;19;20365;-77
2021/12/01 07:37:07;;;;;;;2.13;1.20;;;3.90;99.90;;;;;;7277574;19;2007444;-77
2021/12/01 07:39:33;;;;;;;1.93;1.30;;;3.80;99.90;;;;;;7367033;19;20332;-76
2021/12/01 07:41:58;;;;;;;1.43;1.33;;;3.90;99.90;;;;;;7378008;19;20325;-78
2021/12/01 07:44:24;;;;;;;1.50;1.40;;;3.90;99.90;;;;;;7380365;19;20667;-77
2021/12/01 07:46:50;;;;;;;1.67;1.47;;;4.10;99.90;;;;;;7381438;19;20879;-78
2021/12/01 07:49:18;;;;;;;1.40;1.30;;;4.10;99.90;;;;;;7374815;19;20354;-78
2021/12/01 07:51:44;;;;;;;1.53;1.37;;;4.10;99.90;;;;;;7380480;19;20313;-78
2021/12/01 07:54:10;;;;;;;1.15;1.15;;;4.20;99.90;;;;;;7379594;19;20479;-78
2021/12/01 07:56:36;;;;;;;2.00;1.30;;;4.30;99.90;;;;;;7387187;19;20850;-77
2021/12/01 07:59:01;;;;;;;1.37;1.27;;;4.30;99.90;;;;;;7381538;19;20311;-78
2021/12/01 08:01:27;;;;;;;1.58;1.20;;;4.30;99.90;;;;;;7385200;19;20324;-78
2021/12/01 08:03:52;;;;;;;0.90;0.90;;;4.50;99.90;;;;;;7385272;19;20956;-77
2021/12/01 08:06:18;;;;;;;1.33;1.23;;;4.50;99.90;;;;;;7388748;19;20814;-78
2021/12/01 08:08:44;;;;;;;1.17;1.13;;;4.50;99.90;;;;;;7384900;19;20905;-77
2021/12/01 08:11:09;;;;;;;1.35;1.30;;;4.60;99.90;;;;;;7389837;19;20308;-77
2021/12/01 08:13:35;;;;;;;1.10;1.10;;;4.60;99.90;;;;;;7388143;19;21191;-78
2021/12/01 08:16:01;;;;;;;1.15;1.15;;;4.60;99.90;;;;;;7388780;19;20985;-78
2021/12/01 08:18:26;;;;;;;1.40;1.20;;;4.70;99.90;;;;;;7386164;19;20745;-78
2021/12/01 08:20:52;;;;;;;1.10;1.10;;;4.70;99.90;;;;;;7385593;19;20324;-79
2021/12/01 08:23:18;;;;;;;1.47;1.37;;;4.70;99.90;;;;;;7386737;19;20866;-77
2021/12/01 08:25:43;;;;;;;1.40;1.30;;;4.80;99.90;;;;;;7386479;19;20341;-78
2021/12/01 08:28:09;;;;;;;1.13;1.13;;;4.70;99.90;;;;;;7387143;19;20789;-78
2021/12/01 08:30:35;;;;;;;1.63;1.17;;;4.80;99.90;;;;;;7387967;19;20710;-78
2021/12/01 08:33:00;;;;;;;1.02;1.02;;;4.80;99.90;;;;;;7382614;19;20674;-77
2021/12/01 08:35:26;;;;;;;1.10;1.10;;;4.80;99.90;;;;;;7387916;19;20330;-78
2021/12/01 08:37:52;;;;;;;0.98;0.98;;;4.90;99.90;;;;;;7385753;19;20847;-78
2021/12/01 08:40:18;;;;;;;0.90;0.90;;;4.90;99.90;;;;;;7383959;19;20344;-78
2021/12/01 08:42:44;;;;;;;1.00;1.00;;;4.90;99.90;;;;;;7386834;19;20301;-78
2021/12/01 08:45:10;;;;;;;2.05;1.25;;;4.90;99.90;;;;;;7384731;19;20335;-77
2021/12/01 08:47:35;;;;;;;0.87;0.87;;;5.00;99.90;;;;;;7383616;19;20388;-79
2021/12/01 08:50:01;;;;;;;0.90;0.90;;;5.00;99.90;;;;;;7386017;19;20305;-78
2021/12/01 08:52:27;;;;;;;0.80;0.80;;;5.00;99.90;;;;;;7385812;19;20362;-78
2021/12/01 08:54:53;;;;;;;0.90;0.80;;;5.10;99.90;;;;;;7385450;19;20646;-78
2021/12/01 08:57:18;;;;;;;0.90;0.90;;;5.10;99.90;;;;;;7385825;19;20343;-79
2021/12/01 08:59:45;;;;;;;0.70;0.70;;;5.10;99.90;;;;;;7382875;19;20324;-78
2021/12/01 09:02:11;;;;;;;1.00;1.00;;;5.20;99.90;;;;;;7387031;19;20323;-79
2021/12/01 09:04:36;;;;;;;1.10;1.10;;;5.10;99.90;;;;;;7367944;19;20386;-78
2021/12/01 09:07:03;;;;;;;1.10;1.00;;;5.10;99.90;;;;;;7382532;19;20353;-78
2021/12/01 09:09:29;;;;;;;0.87;0.87;;;5.20;99.90;;;;;;7384786;19;20337;-79
2021/12/01 09:11:54;;;;;;;0.95;0.88;;;5.20;99.90;;;;;;7383916;19;20317;-79
2021/12/01 09:14:23;;;;;;;0.82;0.82;;;5.20;99.90;;;;;;7387861;19;20416;-78
2021/12/01 09:16:49;;;;;;;1.15;1.05;;;5.20;99.90;;;;;;7385773;19;20945;-78
2021/12/01 09:19:14;;;;;;;0.63;0.63;;;5.30;99.90;;;;;;7383237;19;20867;-78
2021/12/01 09:21:40;;;;;;;0.85;0.85;;;5.30;99.90;;;;;;7385670;19;20914;-78
2021/12/01 09:24:05;;;;;;;1.00;1.00;;;5.30;99.90;;;;;;7384982;19;20845;-78
2021/12/01 09:26:31;;;;;;;0.85;0.85;;;5.40;99.90;;;;;;7386012;19;20726;-78
2021/12/01 09:28:57;;;;;;;1.25;1.20;;;5.40;99.90;;;;;;7383715;19;20340;-79
2021/12/01 09:31:23;;;;;;;0.80;0.80;;;5.30;99.90;;;;;;7383773;19;21155;-80
2021/12/01 09:33:49;;;;;;;0.90;0.90;;;5.50;99.90;;;;;;7383762;19;20309;-79
2021/12/01 09:36:15;;;;;;;1.00;1.00;;;5.40;99.90;;;;;;7385310;19;20303;-79
2021/12/01 09:38:40;;;;;;;2.05;1.38;;;5.40;99.90;;;;;;7383185;19;20308;-79
2021/12/01 09:41:06;;;;;;;0.90;0.90;;;5.40;99.90;;;;;;7388134;19;20325;-79
2021/12/01 09:43:32;;;;;;;0.90;0.90;;;5.40;99.90;;;;;;7383758;19;20348;-79
2021/12/01 09:45:59;;;;;;;0.70;0.70;;;5.40;99.90;;;;;;7385228;19;20700;-79
2021/12/01 09:48:25;;;;;;;2.10;1.88;;;5.50;99.90;;;;;;7385004;19;20372;-79
2021/12/01 09:50:51;;;;;;;2.10;1.90;;;5.50;99.90;;;;;;7383811;19;20359;-79
2021/12/01 09:53:17;;;;;;;0.90;0.90;;;5.50;99.90;;;;;;7383902;19;20335;-79
2021/12/01 09:55:43;;;;;;;1.00;1.00;;;5.60;99.90;;;;;;7383754;19;20356;-79
2021/12/01 09:58:11;;;;;;;1.10;1.10;;;5.50;99.90;;;;;;7362226;19;20315;-80
2021/12/01 10:00:39;;;;;;;0.95;0.95;;;5.60;99.90;;;;;;7384116;19;20380;-79
2021/12/01 10:03:05;;;;;;;1.00;0.90;;;5.60;99.90;;;;;;7384232;19;20321;-79
2021/12/01 10:05:45;;;;;;;1.00;1.00;;;5.60;99.90;;;;;;7384255;19;20308;-79
2021/12/01 10:08:19;;;;;;;1.10;1.10;;;5.60;99.90;;;;;;7383918;19;20396;-79
2021/12/01 10:10:45;;;;;;;1.10;1.10;;;5.70;99.90;;;;;;7383739;19;20356;-79
2021/12/01 10:13:10;;;;;;;0.90;0.90;;;5.70;99.90;;;;;;7384040;19;20370;-80
2021/12/01 10:15:36;;;;;;;1.00;1.00;;;5.70;99.90;;;;;;7381878;19;20297;-80
2021/12/01 10:18:12;;;;;;;1.20;1.20;;;5.70;99.90;;;;;;7381076;19;20333;-79
2021/12/01 10:20:37;;;;;;;1.05;0.98;;;5.80;99.90;;;;;;7386605;19;20353;-79
2021/12/01 10:23:11;;;;;;;1.10;1.10;;;5.80;99.90;;;;;;7382655;19;20300;-79
2021/12/01 10:25:37;;;;;;;1.20;1.10;;;5.80;99.90;;;;;;7382831;19;20340;-79
2021/12/01 10:28:03;;;;;;;1.00;1.00;;;5.90;99.90;;;;;;7382677;19;20309;-79
2021/12/01 10:30:55;;;;;;;1.00;1.00;;;5.90;99.90;;;;;;7374303;19;20405;-81
2021/12/01 10:33:20;;;;;;;0.90;0.90;;;5.90;99.90;;;;;;7384976;19;20321;-81
2021/12/01 10:35:46;;;;;;;1.00;1.00;;;5.90;99.90;;;;;;7383062;19;20359;-78
2021/12/01 10:38:13;;;;;;;1.00;1.00;;;5.90;99.90;;;;;;7384163;19;20348;-81
2021/12/01 10:40:39;;;;;;;0.95;0.95;;;5.90;99.90;;;;;;7384482;19;20439;-79
2021/12/01 10:43:11;;;;;;;1.00;1.00;;;5.90;99.90;;;;;;7384916;19;20308;-80
2021/12/01 10:45:48;;;;;;;1.10;1.10;;;6.00;99.90;;;;;;7384199;19;20324;-79
2021/12/01 10:48:25;;;;;;;1.27;1.17;;;6.00;99.90;;;;;;7280095;19;2020160;-79
2021/12/01 10:50:51;;;;;;;0.90;0.90;;;6.00;99.90;;;;;;7280986;19;2019347;-80
2021/12/01 10:53:18;;;;;;;1.10;1.10;;;6.00;99.90;;;;;;7385002;19;20691;-80
2021/12/01 10:55:46;;;;;;;0.90;0.90;;;6.10;99.90;;;;;;7381474;19;20333;-80
2021/12/01 10:58:11;;;;;;;1.00;1.00;;;6.00;99.90;;;;;;7382199;19;20855;-79
2021/12/01 11:00:43;;;;;;;0.90;0.90;;;6.10;99.90;;;;;;7384197;19;20328;-80
2021/12/01 11:03:09;;;;;;;0.90;0.90;;;6.10;99.90;;;;;;7383887;19;20305;-81
2021/12/01 11:05:40;;;;;;;0.80;0.80;;;6.20;99.90;;;;;;7384318;19;20312;-79
2021/12/01 11:08:19;;;;;;;2.40;2.20;;;6.20;99.90;;;;;;7382852;19;21773;-80
2021/12/01 11:11:05;;;;;;;1.10;1.10;;;6.20;99.90;;;;;;7381955;19;20332;-80
2021/12/01 11:13:31;;;;;;;1.17;1.17;;;6.20;99.90;;;;;;7279216;19;2020183;-80
2021/12/01 11:15:58;;;;;;;1.30;1.20;;;6.20;99.90;;;;;;7384456;19;20369;-80
2021/12/01 11:18:30;;;;;;;0.90;0.90;;;6.30;99.90;;;;;;7381419;19;20980;-80
2021/12/01 11:21:00;;;;;;;0.80;0.80;;;6.30;99.90;;;;;;7381785;19;20467;-79
2021/12/01 11:23:33;;;;;;;0.90;0.90;;;6.40;99.90;;;;;;7382889;19;20333;-78
2021/12/01 11:26:05;;;;;;;1.00;1.00;;;6.50;99.90;;;;;;7277749;19;2020881;-78
2021/12/01 11:28:32;;;;;;;1.33;1.23;;;6.50;99.90;;;;;;7381156;19;20336;-79
2021/12/01 11:31:01;;;;;;;1.00;1.00;;;6.60;99.90;;;;;;7377987;19;20392;-79
2021/12/01 11:33:27;;;;;;;1.90;1.10;;;6.60;99.90;;;;;;7380536;19;20308;-81
2021/12/01 11:35:57;;;;;;;0.90;0.90;;;6.60;99.90;;;;;;7382295;19;20357;-81
2021/12/01 11:38:23;;;;;;;2.25;2.05;;;6.60;99.90;;;;;;7381506;19;20757;-80
2021/12/01 11:40:49;;;;;;;1.00;1.00;;;6.60;99.90;;;;;;7381738;19;20404;-80
2021/12/01 11:43:15;;;;;;;1.63;0.90;;;6.60;99.90;;;;;;7382299;19;20917;-80
2021/12/01 11:45:42;;;;;;;0.80;0.80;;;6.60;99.90;;;;;;7380921;19;20336;-84
2021/12/01 11:48:32;;;;;;;0.77;0.77;;;6.60;99.90;;;;;;7384084;19;20308;-81
2021/12/01 11:51:15;;;;;;;0.70;0.70;;;6.60;99.90;;;;;;7279011;19;2019963;-81
2021/12/01 11:53:44;;;;;;;0.90;0.90;;;6.70;99.90;;;;;;7365518;19;20336;-79
2021/12/01 11:56:17;;;;;;;1.00;1.00;;;6.60;99.90;;;;;;7383593;19;20328;-81
2021/12/01 11:58:51;;;;;;;1.20;1.20;;;6.70;99.90;;;;;;7377940;19;20352;-80
2021/12/01 12:01:24;;;;;;;0.80;0.80;;;6.70;99.90;;;;;;7381190;19;20665;-80
2021/12/01 12:04:01;;;;;;;1.40;1.30;;;6.70;99.90;;;;;;7381910;19;20458;-80
2021/12/01 12:06:31;;;;;;;2.72;1.67;;;6.70;99.90;;;;;;7280052;19;2019246;-80
2021/12/01 12:08:57;;;;;;;2.70;1.30;;;6.70;99.90;;;;;;7378761;19;20507;-80
2021/12/01 12:11:43;;;;;;;0.90;0.90;;;6.70;99.90;;;;;;7380219;19;20315;-80
2021/12/01 12:14:11;;;;;;;0.90;0.90;;;6.60;99.90;;;;;;7396017;19;20330;-80
2021/12/01 12:16:37;;;;;;;1.38;1.23;;;6.70;99.90;;;;;;7400036;19;20465;-80
2021/12/01 12:19:03;;;;;;;0.88;0.88;;;6.60;99.90;;;;;;7388762;19;20352;-78
2021/12/01 12:21:44;;;;;;;0.90;0.90;;;6.60;99.90;;;;;;7381806;19;20325;-79
2021/12/01 12:24:13;;;;;;;1.00;1.00;;;6.60;99.90;;;;;;7378695;19;20887;-79
2021/12/01 12:26:44;;;;;;;0.70;0.70;;;6.60;99.90;;;;;;7380269;19;20818;-79
2021/12/01 12:29:21;;;;;;;0.65;0.65;;;6.60;99.90;;;;;;7378866;19;20368;-79
2021/12/01 12:31:48;;;;;;;1.20;1.10;;;6.60;99.90;;;;;;7380946;19;20860;-80
2021/12/01 12:34:18;;;;;;;0.85;0.85;;;6.40;99.90;;;;;;7379225;19;20335;-79
2021/12/01 12:36:57;;;;;;;0.75;0.75;;;6.50;99.90;;;;;;7377618;19;20331;-80
2021/12/01 12:39:28;;;;;;;0.70;0.70;;;6.40;99.90;;;;;;7379934;19;20313;-81
2021/12/01 12:41:54;;;;;;;1.10;1.00;;;6.50;99.90;;;;;;7381585;19;20312;-81
2021/12/01 12:44:45;;;;;;;0.90;0.90;;;6.60;99.90;;;;;;7388609;19;20668;-80
2021/12/01 12:47:24;;;;;;;0.70;0.70;;;6.50;99.90;;;;;;7387923;19;20349;-80
2021/12/01 12:49:52;;;;;;;0.80;0.80;;;6.60;99.90;;;;;;7385805;19;20329;-80
2021/12/01 12:52:26;;;;;;;0.60;0.60;;;6.60;99.90;;;;;;7386866;19;20333;-80
2021/12/01 12:54:53;;;;;;;0.60;0.60;;;6.60;99.90;;;;;;7384156;19;20407;-81
2021/12/01 12:57:19;;;;;;;0.90;0.90;;;6.60;99.90;;;;;;7387269;19;20328;-82
2021/12/01 12:59:45;;;;;;;0.80;0.80;;;6.60;99.90;;;;;;7384504;19;20321;-79